General Aviation Weather

Text Reports

Enter one or more of the following location identifiers separated by a space:

Zip Code, Four-Character ICAO or Three-Character IATA airport codes.

METAR - Aviation Routine Weather Report
KMDH - Carbondale, Illinois
Updated at 5:52 AM GMT on July 05, 2015 (12:52 AM CDT):
METAR KMDH 050552Z AUTO 00000KT 1 1/2SM BR CLR 21/19 A3003 RMK AO2 SLP165 T02060194 10261 20200 402830194 50008
TAF - Terminal Area Forecast
KMDH - Carbondale, Illinois
Updated at 5:52 AM GMT on July 05, 2015 (12:52 AM CDT):
No TAF is currently available for this location.
Decoded:
No decoded TAF is available.
PIREP - Pilot Weather Report
KMDH - Carbondale, Illinois
Updated at 5:52 AM GMT on July 05, 2015 (12:52 AM CDT):
No PIREP is currently available for this location.
AIRMET - Airmens Meteorological Information
KMDH - Carbondale, Illinois
Updated at 5:52 AM GMT on July 05, 2015 (12:52 AM CDT):
No AIRMET is currently available for this location.
SIGMET - Significant Meteorological Information
KMDH - Carbondale, Illinois
Updated at 5:52 AM GMT on July 05, 2015 (12:52 AM CDT):
No SIGMET is currently available for this location.
NOTAM - Notice to Airmen
KMDH - Carbondale, Illinois
Updated at 5:52 AM GMT on July 05, 2015 (12:52 AM CDT):
No NOTAM is currently available for this location.
Forecast Area
KMDH - Carbondale, Illinois
Updated at 5:52 AM GMT on July 05, 2015 (12:52 AM CDT):
No NOTAM is currently available for this location.
Aviation Weather Maps